Time;durP1;ratioP1;P1;durP2;ratioP2;P2;SDS_P1;SDS_P2;PMS_P1;PMS_P2;Temp;Humidity;BMP_temperature;BMP_pressure;BME280_temperature;BME280_humidity;BME280_pressure;Samples;Min_cycle;Max_cycle;Signal;HPM_P1;HPM_P2
2022/04/03 00:00:50;;;;;;;11.57;7.67;;;3.10;99.90;;;;;;5060006;28;20265;-73
2022/04/03 00:03:16;;;;;;;9.10;7.40;;;3.20;99.90;;;;;;5068813;28;20208;-73
2022/04/03 00:05:43;;;;;;;10.13;8.47;;;3.20;99.90;;;;;;5057596;28;20672;-73
2022/04/03 00:08:14;;;;;;;9.10;8.00;;;3.10;99.90;;;;;;5048398;28;20509;-73
2022/04/03 00:10:40;;;;;;;10.03;8.03;;;3.20;99.90;;;;;;5058702;28;20703;-73
2022/04/03 00:13:06;;;;;;;9.30;7.20;;;3.20;99.90;;;;;;5066738;28;20181;-73
2022/04/03 00:15:33;;;;;;;8.50;6.30;;;3.20;99.90;;;;;;5064588;28;20186;-73
2022/04/03 00:17:59;;;;;;;9.90;6.90;;;3.20;99.90;;;;;;5059599;28;20260;-73
2022/04/03 00:20:25;;;;;;;9.77;6.80;;;3.20;97.70;;;;;;5067423;28;20220;-73
2022/04/03 00:22:52;;;;;;;9.63;7.00;;;3.20;98.50;;;;;;5063756;28;20229;-73
2022/04/03 00:25:19;;;;;;;11.53;6.30;;;3.20;99.60;;;;;;5064089;28;20288;-73
2022/04/03 00:27:45;;;;;;;10.40;6.97;;;3.10;99.50;;;;;;5064874;28;20235;-73
2022/04/03 00:30:12;;;;;;;7.87;6.40;;;3.00;99.90;;;;;;5070106;28;20615;-73
2022/04/03 00:32:38;;;;;;;7.90;5.70;;;3.00;99.90;;;;;;5063241;28;20200;-73
2022/04/03 00:35:05;;;;;;;8.77;6.90;;;3.00;99.90;;;;;;5066539;28;20208;-72
2022/04/03 00:37:31;;;;;;;8.63;6.60;;;3.00;99.90;;;;;;5068010;28;20691;-73
2022/04/03 00:39:57;;;;;;;8.10;6.50;;;3.00;99.90;;;;;;5067790;28;20273;-73
2022/04/03 00:42:23;;;;;;;9.83;6.63;;;2.90;99.90;;;;;;5071155;28;20660;-73
2022/04/03 00:44:49;;;;;;;8.13;6.47;;;2.90;99.90;;;;;;5066021;28;20239;-73
2022/04/03 00:47:17;;;;;;;10.20;6.73;;;2.90;99.90;;;;;;5063577;28;20177;-73
2022/04/03 00:49:42;;;;;;;9.53;7.07;;;2.90;99.90;;;;;;5063818;28;20231;-73
2022/04/03 00:52:08;;;;;;;8.40;6.43;;;2.90;99.90;;;;;;5060272;28;20182;-72
2022/04/03 00:54:35;;;;;;;8.27;6.23;;;2.90;99.90;;;;;;5064613;28;20196;-73
2022/04/03 00:57:07;;;;;;;8.50;6.50;;;2.90;99.90;;;;;;5065209;28;20244;-73
2022/04/03 00:59:34;;;;;;;10.60;6.97;;;2.90;99.90;;;;;;5062192;28;20187;-73
2022/04/03 01:02:02;;;;;;;9.00;6.70;;;3.00;99.90;;;;;;5061630;28;20575;-73
2022/04/03 01:04:28;;;;;;;9.57;7.13;;;3.00;99.90;;;;;;5077639;28;20212;-73
2022/04/03 01:06:55;;;;;;;9.67;7.00;;;3.00;99.90;;;;;;5063740;28;20260;-73
2022/04/03 01:09:20;;;;;;;9.63;7.07;;;3.00;99.80;;;;;;5065349;28;20321;-73
2022/04/03 01:11:46;;;;;;;8.00;6.60;;;2.90;99.90;;;;;;5062915;28;20303;-73
2022/04/03 01:14:12;;;;;;;8.50;6.50;;;2.90;99.90;;;;;;5060200;28;20305;-73
2022/04/03 01:16:38;;;;;;;7.67;5.80;;;2.90;99.90;;;;;;5063195;28;20755;-73
2022/04/03 01:19:04;;;;;;;8.07;6.30;;;3.00;99.90;;;;;;5065905;28;20272;-73
2022/04/03 01:21:30;;;;;;;8.47;6.20;;;3.00;99.90;;;;;;5063064;28;20300;-73
2022/04/03 01:23:56;;;;;;;7.40;5.50;;;3.00;99.90;;;;;;5062124;28;20206;-73
2022/04/03 01:26:26;;;;;;;7.20;5.93;;;3.00;99.90;;;;;;5063127;28;20182;-73
2022/04/03 01:28:52;;;;;;;8.50;5.67;;;3.00;99.90;;;;;;5065279;28;20680;-73
2022/04/03 01:31:18;;;;;;;6.80;5.70;;;3.00;99.90;;;;;;5062610;28;20192;-74
2022/04/03 01:33:44;;;;;;;7.50;5.80;;;3.10;99.90;;;;;;5063252;28;20197;-73
2022/04/03 01:36:11;;;;;;;7.63;5.97;;;3.20;99.90;;;;;;5065892;28;20178;-73
2022/04/03 01:38:36;;;;;;;7.23;6.00;;;3.20;99.90;;;;;;5062954;28;20204;-74
2022/04/03 01:41:02;;;;;;;11.37;6.63;;;3.20;99.90;;;;;;5063101;28;20546;-73
2022/04/03 01:43:28;;;;;;;7.30;6.00;;;3.20;99.90;;;;;;5062908;28;20224;-73
2022/04/03 01:45:54;;;;;;;7.97;6.40;;;3.20;99.90;;;;;;5061573;28;20181;-72
2022/04/03 01:48:21;;;;;;;6.70;5.87;;;3.20;99.90;;;;;;5061512;28;20704;-73
2022/04/03 01:50:48;;;;;;;8.07;6.20;;;3.10;99.90;;;;;;5063432;28;20603;-74
2022/04/03 01:53:14;;;;;;;7.20;6.10;;;3.20;99.90;;;;;;5065382;28;20185;-73
2022/04/03 01:55:40;;;;;;;7.80;5.93;;;3.20;99.90;;;;;;5068931;28;20692;-72
2022/04/03 01:58:08;;;;;;;7.23;5.40;;;3.20;99.90;;;;;;5064004;28;20256;-73
2022/04/03 02:00:34;;;;;;;6.63;5.90;;;3.20;99.90;;;;;;5043421;28;20181;-73
2022/04/03 02:03:00;;;;;;;8.13;6.23;;;3.30;99.90;;;;;;5061703;28;20306;-73
2022/04/03 02:05:26;;;;;;;8.20;6.30;;;3.30;99.90;;;;;;5062797;28;20251;-73
2022/04/03 02:07:52;;;;;;;8.10;5.90;;;3.30;99.90;;;;;;5062587;28;20184;-73
2022/04/03 02:10:17;;;;;;;6.00;5.37;;;3.30;99.90;;;;;;5065225;28;20197;-73
2022/04/03 02:12:44;;;;;;;8.40;6.00;;;3.30;99.90;;;;;;5060153;28;20271;-73
2022/04/03 02:15:11;;;;;;;8.33;5.77;;;3.30;99.90;;;;;;5060269;28;20202;-73
2022/04/03 02:17:39;;;;;;;10.60;6.40;;;3.30;99.90;;;;;;5060483;28;20186;-73
2022/04/03 02:20:05;;;;;;;6.60;5.37;;;3.30;99.90;;;;;;5061866;28;20192;-73
2022/04/03 02:22:31;;;;;;;8.40;6.47;;;3.30;99.90;;;;;;5062675;28;20287;-73
2022/04/03 02:24:57;;;;;;;9.70;6.23;;;3.30;99.90;;;;;;5064475;28;20233;-73
2022/04/03 02:27:24;;;;;;;7.07;5.50;;;3.30;99.90;;;;;;5060413;28;20208;-73
2022/04/03 02:29:50;;;;;;;7.23;5.73;;;3.30;99.90;;;;;;5061390;28;20181;-73
2022/04/03 02:32:16;;;;;;;7.27;5.40;;;3.30;99.90;;;;;;5058390;28;20177;-73
2022/04/03 02:34:43;;;;;;;8.83;5.40;;;3.30;99.90;;;;;;5062802;28;20288;-73
2022/04/03 02:37:08;;;;;;;7.47;5.30;;;3.30;99.90;;;;;;5060166;28;20268;-74
2022/04/03 02:39:34;;;;;;;7.17;5.33;;;3.40;99.90;;;;;;5060770;28;20189;-72
2022/04/03 02:42:00;;;;;;;6.87;5.47;;;3.40;99.90;;;;;;5059584;28;20201;-73
2022/04/03 02:44:25;;;;;;;6.77;5.43;;;3.40;99.90;;;;;;5062119;28;20210;-73
2022/04/03 02:46:51;;;;;;;7.10;5.10;;;3.40;99.90;;;;;;5062482;28;20177;-73
2022/04/03 02:49:18;;;;;;;9.03;5.40;;;3.50;99.90;;;;;;5062048;28;20211;-73
2022/04/03 02:51:43;;;;;;;5.67;4.90;;;3.50;99.90;;;;;;5058297;28;20195;-73
2022/04/03 02:54:09;;;;;;;6.80;5.20;;;3.50;99.90;;;;;;5061927;28;20284;-72
2022/04/03 02:56:35;;;;;;;5.30;4.63;;;3.50;99.90;;;;;;5061131;28;20189;-73
2022/04/03 02:59:00;;;;;;;5.63;4.60;;;3.60;99.90;;;;;;5059805;28;20185;-73
2022/04/03 03:01:26;;;;;;;7.97;4.97;;;3.60;98.30;;;;;;5068494;28;20189;-73
2022/04/03 03:03:52;;;;;;;5.70;5.10;;;3.60;95.60;;;;;;5061468;28;20716;-72
2022/04/03 03:06:19;;;;;;;6.67;4.83;;;3.70;94.70;;;;;;5058546;28;20177;-73
2022/04/03 03:08:45;;;;;;;7.50;5.27;;;3.60;92.50;;;;;;5062642;28;20208;-73
2022/04/03 03:11:10;;;;;;;7.47;5.03;;;3.70;93.90;;;;;;5059392;28;20216;-73
2022/04/03 03:13:36;;;;;;;5.93;5.30;;;3.70;96.20;;;;;;5058147;28;20204;-73
2022/04/03 03:16:03;;;;;;;7.50;5.27;;;3.70;95.90;;;;;;5062933;28;20181;-73
2022/04/03 03:18:28;;;;;;;7.60;5.53;;;3.70;96.90;;;;;;5062928;28;20272;-73
2022/04/03 03:20:54;;;;;;;6.93;5.70;;;3.70;96.10;;;;;;5066605;28;20273;-73
2022/04/03 03:23:20;;;;;;;6.80;5.73;;;3.70;96.00;;;;;;5056261;28;20258;-73
2022/04/03 03:25:46;;;;;;;6.47;5.77;;;3.70;96.20;;;;;;5060342;28;20222;-73
2022/04/03 03:28:12;;;;;;;8.40;5.33;;;3.70;96.20;;;;;;5064027;28;20197;-73
2022/04/03 03:30:38;;;;;;;7.77;5.50;;;3.60;96.50;;;;;;5059703;28;20177;-73
2022/04/03 03:33:05;;;;;;;7.93;6.13;;;3.60;96.60;;;;;;5062231;28;20182;-73
2022/04/03 03:35:31;;;;;;;7.27;5.87;;;3.60;97.70;;;;;;5061232;28;20217;-73
2022/04/03 03:37:57;;;;;;;6.23;5.57;;;3.60;97.70;;;;;;5061776;28;20348;-73
2022/04/03 03:40:23;;;;;;;7.03;6.23;;;3.50;97.80;;;;;;5059803;28;20231;-73
2022/04/03 03:42:49;;;;;;;9.00;6.23;;;3.50;97.90;;;;;;5057735;28;20266;-73
2022/04/03 03:45:16;;;;;;;6.43;5.33;;;3.50;97.90;;;;;;5060527;28;20292;-73
2022/04/03 03:47:46;;;;;;;7.53;5.73;;;3.50;98.00;;;;;;5063854;28;20212;-73
2022/04/03 03:50:12;;;;;;;7.57;5.70;;;3.50;98.00;;;;;;5058162;28;20177;-73
2022/04/03 03:52:41;;;;;;;8.97;6.10;;;3.40;98.40;;;;;;5059406;28;20189;-72
2022/04/03 03:55:08;;;;;;;7.80;6.17;;;3.40;99.40;;;;;;5060001;28;20231;-73
2022/04/03 03:57:34;;;;;;;10.30;6.57;;;3.40;99.00;;;;;;5062929;28;20177;-73
2022/04/03 04:00:01;;;;;;;8.30;6.47;;;3.40;98.30;;;;;;5059731;28;20186;-73
2022/04/03 04:02:27;;;;;;;7.17;6.13;;;3.40;98.10;;;;;;5059057;28;20708;-72
2022/04/03 04:04:53;;;;;;;9.40;6.30;;;3.40;98.20;;;;;;5058240;28;20201;-73
2022/04/03 04:07:19;;;;;;;8.53;6.20;;;3.30;99.50;;;;;;5062384;28;20186;-73
2022/04/03 04:09:45;;;;;;;7.00;6.10;;;3.40;99.50;;;;;;5060868;28;20855;-73
2022/04/03 04:12:11;;;;;;;8.27;6.27;;;3.40;99.90;;;;;;5059782;28;20186;-73
2022/04/03 04:14:41;;;;;;;8.07;6.33;;;3.30;99.90;;;;;;5062692;28;20228;-73
2022/04/03 04:17:08;;;;;;;7.70;6.20;;;3.30;99.90;;;;;;5059675;28;20182;-73
2022/04/03 04:19:35;;;;;;;8.07;5.90;;;3.20;99.90;;;;;;5059144;28;20197;-72
2022/04/03 04:22:01;;;;;;;9.50;6.73;;;3.20;99.90;;;;;;5060541;28;20232;-71
2022/04/03 04:24:28;;;;;;;7.70;6.37;;;3.20;99.90;;;;;;5061423;28;20580;-72
2022/04/03 04:26:53;;;;;;;10.13;6.77;;;3.10;99.90;;;;;;5064425;28;20173;-72
2022/04/03 04:29:19;;;;;;;8.47;6.37;;;3.10;99.90;;;;;;5061842;28;20280;-72
2022/04/03 04:31:45;;;;;;;8.23;6.17;;;3.20;99.90;;;;;;5060308;28;20350;-72
2022/04/03 04:34:11;;;;;;;8.70;6.23;;;3.20;99.90;;;;;;5061665;28;20212;-72
2022/04/03 04:36:36;;;;;;;8.27;6.07;;;3.20;99.90;;;;;;5059831;28;20178;-71
2022/04/03 04:39:02;;;;;;;9.57;6.80;;;3.20;99.90;;;;;;5059327;28;20204;-71
2022/04/03 04:41:28;;;;;;;8.60;6.60;;;3.20;99.90;;;;;;5058218;28;20200;-72
2022/04/03 04:43:54;;;;;;;10.37;7.00;;;3.20;99.90;;;;;;5066994;28;20898;-72
2022/04/03 04:46:23;;;;;;;10.03;6.60;;;3.10;99.90;;;;;;5064059;28;20192;-72
2022/04/03 04:48:49;;;;;;;8.63;6.33;;;3.10;99.90;;;;;;5058795;28;20658;-72
2022/04/03 04:51:16;;;;;;;10.10;7.30;;;3.10;99.90;;;;;;5064143;28;20195;-74
2022/04/03 04:53:42;;;;;;;8.33;6.53;;;3.00;99.90;;;;;;5062586;28;20246;-72
2022/04/03 04:56:09;;;;;;;8.70;6.87;;;2.90;99.90;;;;;;5058928;28;20638;-72
2022/04/03 04:58:35;;;;;;;9.30;6.70;;;2.90;99.90;;;;;;5059859;28;20276;-72
2022/04/03 05:01:00;;;;;;;8.33;6.37;;;2.80;99.90;;;;;;5057322;28;20653;-72
2022/04/03 05:03:26;;;;;;;11.30;7.20;;;2.80;99.90;;;;;;5060449;28;20220;-72
2022/04/03 05:05:52;;;;;;;10.97;7.00;;;2.70;99.90;;;;;;5062275;28;20252;-71
2022/04/03 05:08:18;;;;;;;9.93;7.03;;;2.70;99.90;;;;;;5065470;28;20185;-71
2022/04/03 05:10:44;;;;;;;7.97;6.13;;;2.70;99.90;;;;;;5064747;28;20170;-72
2022/04/03 05:13:11;;;;;;;8.70;6.57;;;2.70;99.90;;;;;;5060970;28;20565;-74
2022/04/03 05:15:36;;;;;;;9.97;7.90;;;2.60;99.90;;;;;;5064791;28;20254;-73
2022/04/03 05:18:03;;;;;;;10.50;6.90;;;2.70;99.90;;;;;;5068252;28;20701;-74
2022/04/03 05:20:29;;;;;;;8.90;7.03;;;2.70;99.90;;;;;;5066969;28;20181;-74
2022/04/03 05:22:54;;;;;;;10.33;7.47;;;2.70;99.90;;;;;;5061217;28;20292;-74
2022/04/03 05:25:20;;;;;;;11.23;7.70;;;2.60;99.90;;;;;;5065580;28;20276;-71
2022/04/03 05:27:46;;;;;;;11.67;6.97;;;2.60;99.90;;;;;;5064276;28;20716;-71
2022/04/03 05:30:13;;;;;;;11.53;7.37;;;2.60;99.90;;;;;;5064103;28;20189;-71
2022/04/03 05:32:40;;;;;;;9.30;7.27;;;2.60;99.90;;;;;;5060752;28;20210;-71
2022/04/03 05:35:08;;;;;;;13.13;8.30;;;2.60;99.90;;;;;;5063569;28;20204;-72
2022/04/03 05:37:33;;;;;;;11.00;7.30;;;2.60;99.90;;;;;;5063710;28;20178;-72
2022/04/03 05:39:59;;;;;;;11.03;7.80;;;2.50;99.90;;;;;;5064075;28;20188;-71
2022/04/03 05:42:25;;;;;;;11.40;7.67;;;2.50;99.90;;;;;;5064211;28;20775;-72
2022/04/03 05:44:51;;;;;;;12.10;7.40;;;2.50;99.90;;;;;;5064911;28;20198;-72
2022/04/03 05:47:17;;;;;;;9.10;7.23;;;2.50;99.90;;;;;;5062451;28;20223;-72
2022/04/03 05:49:44;;;;;;;8.60;7.07;;;2.50;99.90;;;;;;5063195;28;20177;-72
2022/04/03 05:52:09;;;;;;;11.30;8.00;;;2.60;99.90;;;;;;5064323;28;20199;-72
2022/04/03 05:54:35;;;;;;;11.37;9.03;;;2.60;99.90;;;;;;5063851;28;20204;-72
2022/04/03 05:57:01;;;;;;;12.30;9.80;;;2.60;99.90;;;;;;5065158;28;20275;-72
2022/04/03 05:59:27;;;;;;;11.27;8.70;;;2.70;99.90;;;;;;5064316;28;20182;-72
2022/04/03 06:01:53;;;;;;;10.03;8.30;;;2.70;99.90;;;;;;5063800;28;20209;-72
2022/04/03 06:04:18;;;;;;;11.57;8.10;;;2.80;99.90;;;;;;5062360;28;20193;-72
2022/04/03 06:06:44;;;;;;;10.70;7.70;;;2.90;99.90;;;;;;5061197;28;20180;-72
2022/04/03 06:09:10;;;;;;;9.03;7.63;;;2.90;99.90;;;;;;5062641;28;20196;-71
2022/04/03 06:11:36;;;;;;;8.83;7.10;;;3.00;99.90;;;;;;5061813;28;20182;-72
2022/04/03 06:14:02;;;;;;;9.67;7.87;;;3.00;99.90;;;;;;5062283;28;20213;-72
2022/04/03 06:16:28;;;;;;;9.40;7.53;;;3.10;99.90;;;;;;5061715;28;20261;-72
2022/04/03 06:18:54;;;;;;;11.27;7.83;;;3.10;99.90;;;;;;5059941;28;20254;-72
2022/04/03 06:21:20;;;;;;;13.73;8.23;;;3.20;99.90;;;;;;5061688;28;20272;-72
2022/04/03 06:23:45;;;;;;;11.00;8.60;;;3.20;99.90;;;;;;5064316;28;20254;-72
2022/04/03 06:26:12;;;;;;;12.43;8.67;;;3.30;99.90;;;;;;5062705;28;20177;-72
2022/04/03 06:28:37;;;;;;;10.90;8.30;;;3.30;99.90;;;;;;5059045;28;20182;-72
2022/04/03 06:31:04;;;;;;;10.93;8.17;;;3.30;98.20;;;;;;5060005;28;20193;-72
2022/04/03 06:33:30;;;;;;;12.97;7.80;;;3.30;97.30;;;;;;5061825;28;20225;-72
2022/04/03 06:35:56;;;;;;;10.33;7.97;;;3.40;95.10;;;;;;5064121;28;20679;-72
2022/04/03 06:38:22;;;;;;;9.50;7.73;;;3.30;93.50;;;;;;5061956;28;20209;-75
2022/04/03 06:40:53;;;;;;;9.40;7.20;;;3.30;92.70;;;;;;5065036;28;20690;-76
2022/04/03 06:43:21;;;;;;;9.10;7.80;;;3.30;93.40;;;;;;5070257;28;20220;-75
2022/04/03 06:45:50;;;;;;;10.43;7.67;;;3.30;93.50;;;;;;5065817;28;20682;-75
2022/04/03 06:48:16;;;;;;;12.47;8.23;;;3.30;92.10;;;;;;5073620;28;20648;-81
2022/04/03 06:50:42;;;;;;;12.67;8.33;;;3.30;92.80;;;;;;5065317;28;20189;-76
2022/04/03 06:53:09;;;;;;;11.83;8.47;;;3.20;93.30;;;;;;5070487;28;20185;-76
2022/04/03 06:55:34;;;;;;;9.43;7.60;;;3.20;93.30;;;;;;5068117;28;20173;-75
2022/04/03 06:58:01;;;;;;;9.27;8.00;;;3.30;93.50;;;;;;5063563;28;20185;-75
2022/04/03 07:00:27;;;;;;;11.77;8.53;;;3.30;93.30;;;;;;5061018;28;20181;-75
2022/04/03 07:02:54;;;;;;;10.37;8.23;;;3.30;94.40;;;;;;5069564;28;20217;-75
2022/04/03 07:05:19;;;;;;;9.50;7.33;;;3.40;91.10;;;;;;5068894;28;20204;-76
2022/04/03 07:07:46;;;;;;;9.17;7.80;;;3.30;90.00;;;;;;5065940;28;20193;-75
2022/04/03 07:10:13;;;;;;;8.97;7.37;;;3.30;90.00;;;;;;5069233;28;20327;-75
2022/04/03 07:12:39;;;;;;;9.43;7.33;;;3.40;89.40;;;;;;5067058;28;20213;-75
2022/04/03 07:15:08;;;;;;;8.83;6.90;;;3.40;89.70;;;;;;5069866;28;20618;-76
2022/04/03 07:17:34;;;;;;;9.70;7.10;;;3.40;89.50;;;;;;5067375;28;20186;-75
2022/04/03 07:20:00;;;;;;;8.87;6.73;;;3.40;91.50;;;;;;5069927;28;20181;-76
2022/04/03 07:22:26;;;;;;;9.30;6.80;;;3.50;91.30;;;;;;5069333;28;20590;-75
2022/04/03 07:24:52;;;;;;;10.07;7.70;;;3.60;90.80;;;;;;5080517;28;20257;-75
2022/04/03 07:27:17;;;;;;;9.73;6.63;;;3.70;91.00;;;;;;5054979;28;20190;-75
2022/04/03 07:29:43;;;;;;;7.80;6.60;;;3.80;90.90;;;;;;5060218;28;20275;-75
2022/04/03 07:32:09;;;;;;;8.50;6.57;;;3.90;90.10;;;;;;5059346;28;20174;-78
2022/04/03 07:34:35;;;;;;;9.43;6.60;;;4.00;90.30;;;;;;5068958;28;20209;-76
2022/04/03 07:37:01;;;;;;;8.27;6.73;;;4.10;83.40;;;;;;5063148;28;20184;-76
2022/04/03 07:39:26;;;;;;;9.37;6.27;;;4.10;80.20;;;;;;5062261;28;20521;-75
2022/04/03 07:41:53;;;;;;;9.20;6.63;;;4.10;78.60;;;;;;5064497;28;20840;-76
2022/04/03 07:44:19;;;;;;;10.23;6.77;;;4.20;77.60;;;;;;5065563;28;20302;-76
2022/04/03 07:46:45;;;;;;;10.90;6.40;;;4.20;77.30;;;;;;5062942;28;20802;-76
2022/04/03 07:49:11;;;;;;;7.53;6.00;;;4.20;75.30;;;;;;5063940;28;20173;-76
2022/04/03 07:51:37;;;;;;;8.13;6.40;;;4.20;75.30;;;;;;5081082;28;20216;-76
2022/04/03 07:54:03;;;;;;;8.30;6.53;;;4.30;75.40;;;;;;5070356;28;20232;-76
2022/04/03 07:56:30;;;;;;;8.67;6.03;;;4.30;74.10;;;;;;5085918;28;20177;-76
2022/04/03 07:58:56;;;;;;;9.60;6.33;;;4.30;73.80;;;;;;5070894;28;20252;-76
2022/04/03 08:01:22;;;;;;;9.10;6.57;;;4.40;74.00;;;;;;5061278;28;20196;-76
2022/04/03 08:03:48;;;;;;;9.27;7.00;;;4.50;74.00;;;;;;5069447;28;20213;-76
2022/04/03 08:06:14;;;;;;;8.73;7.10;;;4.50;73.10;;;;;;5067195;28;20177;-76
2022/04/03 08:08:41;;;;;;;7.63;6.20;;;4.50;73.20;;;;;;5067688;28;20204;-76
2022/04/03 08:11:08;;;;;;;7.73;6.20;;;4.50;71.30;;;;;;5069448;28;20173;-76
2022/04/03 08:13:33;;;;;;;8.50;5.73;;;4.50;71.00;;;;;;5060883;28;20216;-76
2022/04/03 08:16:01;;;;;;;7.97;5.90;;;4.50;70.80;;;;;;5061805;28;20185;-76
2022/04/03 08:18:28;;;;;;;7.70;6.10;;;4.50;70.40;;;;;;5068514;28;20188;-76
2022/04/03 08:20:54;;;;;;;6.73;5.80;;;4.60;70.30;;;;;;5065913;28;20170;-75
2022/04/03 08:23:20;;;;;;;9.03;6.37;;;4.50;69.60;;;;;;5060963;28;20288;-76
2022/04/03 08:25:46;;;;;;;8.37;5.97;;;4.70;69.80;;;;;;5069937;28;20260;-76
2022/04/03 08:28:14;;;;;;;8.20;6.03;;;4.80;69.20;;;;;;5065736;28;20169;-76
2022/04/03 08:30:39;;;;;;;7.40;6.30;;;5.00;68.80;;;;;;5066376;28;20184;-76
2022/04/03 08:33:06;;;;;;;8.60;5.70;;;5.20;67.30;;;;;;5068509;28;20173;-76
2022/04/03 08:35:33;;;;;;;8.07;6.20;;;5.40;67.00;;;;;;5085470;28;20248;-76
2022/04/03 08:38:00;;;;;;;8.20;6.17;;;5.60;66.70;;;;;;5066050;28;20616;-76
2022/04/03 08:40:26;;;;;;;8.83;5.93;;;5.70;64.80;;;;;;5074615;28;20212;-77
2022/04/03 08:42:55;;;;;;;7.50;5.90;;;5.70;62.70;;;;;;5071087;28;20644;-76
2022/04/03 08:45:22;;;;;;;7.40;5.47;;;5.80;62.70;;;;;;5071032;28;20193;-76
2022/04/03 08:47:54;;;;;;;6.63;5.27;;;5.90;62.10;;;;;;5071077;28;20209;-77
2022/04/03 08:50:23;;;;;;;6.77;4.77;;;6.00;62.30;;;;;;5070102;28;20209;-76
2022/04/03 08:52:51;;;;;;;6.03;4.73;;;6.00;61.20;;;;;;5073393;28;20181;-76
2022/04/03 08:55:18;;;;;;;5.17;4.27;;;5.90;59.50;;;;;;5068992;28;20280;-76
2022/04/03 08:57:44;;;;;;;7.53;5.13;;;5.80;58.70;;;;;;5064539;28;20189;-76
2022/04/03 09:00:13;;;;;;;5.83;4.50;;;5.60;59.20;;;;;;5067280;28;20178;-77
2022/04/03 09:02:40;;;;;;;5.13;4.03;;;5.40;59.20;;;;;;5065929;28;20246;-76
2022/04/03 09:05:07;;;;;;;5.93;4.13;;;5.30;59.70;;;;;;5074158;28;20615;-76
2022/04/03 09:07:32;;;;;;;7.60;4.13;;;5.30;58.90;;;;;;5065127;28;20169;-76
2022/04/03 09:10:06;;;;;;;6.90;4.50;;;5.30;58.00;;;;;;5066626;28;20246;-77
2022/04/03 09:12:32;;;;;;;5.87;3.30;;;5.40;58.80;;;;;;5066791;28;20186;-76
2022/04/03 09:14:59;;;;;;;6.43;3.70;;;5.40;57.10;;;;;;5066113;28;20200;-76
2022/04/03 09:17:40;;;;;;;4.30;3.27;;;5.40;56.10;;;;;;5067512;28;20189;-77
2022/04/03 09:20:09;;;;;;;5.27;2.90;;;5.50;56.10;;;;;;5069023;28;20268;-77
2022/04/03 09:22:37;;;;;;;3.97;3.13;;;5.60;56.00;;;;;;5073229;28;20205;-76
2022/04/03 09:25:05;;;;;;;5.97;3.30;;;5.70;54.70;;;;;;5066861;28;20201;-76
2022/04/03 09:27:47;;;;;;;3.73;3.10;;;5.70;54.80;;;;;;5062256;28;20311;-76
2022/04/03 09:30:13;;;;;;;4.07;3.13;;;5.80;54.00;;;;;;5070626;28;20997;-76
2022/04/03 09:32:50;;;;;;;4.10;2.50;;;5.90;53.40;;;;;;5067554;28;20186;-77
2022/04/03 09:35:18;;;;;;;6.63;3.27;;;6.00;53.30;;;;;;5065993;28;20205;-76
2022/04/03 09:38:07;;;;;;;4.07;2.87;;;6.00;52.90;;;;;;5068287;28;20224;-76
2022/04/03 09:40:34;;;;;;;6.23;3.00;;;6.10;53.00;;;;;;5072519;28;20187;-76
2022/04/03 09:43:27;;;;;;;3.43;2.77;;;6.20;51.70;;;;;;5063542;28;20213;-76
2022/04/03 09:45:59;;;;;;;4.10;2.90;;;6.30;51.20;;;;;;5072325;28;20200;-76
2022/04/03 09:48:28;;;;;;;3.67;2.60;;;6.40;49.90;;;;;;5069705;28;20184;-76
2022/04/03 09:50:55;;;;;;;2.77;2.37;;;6.50;50.10;;;;;;5058881;28;20173;-77
2022/04/03 09:53:22;;;;;;;3.67;2.47;;;6.60;50.30;;;;;;5062792;28;20645;-76
2022/04/03 09:55:49;;;;;;;3.67;2.77;;;6.60;49.70;;;;;;5070114;28;20189;-78
2022/04/03 09:58:16;;;;;;;3.77;2.80;;;6.60;49.10;;;;;;5070769;28;20264;-76
2022/04/03 10:00:42;;;;;;;3.93;3.10;;;6.60;48.70;;;;;;5067439;28;20780;-75
2022/04/03 10:03:13;;;;;;;5.33;3.10;;;6.50;47.90;;;;;;5067545;28;20224;-77
2022/04/03 10:05:40;;;;;;;4.33;2.80;;;6.50;48.70;;;;;;5063320;28;20216;-76
2022/04/03 10:08:07;;;;;;;4.10;3.00;;;6.40;48.60;;;;;;5069272;28;20183;-75
2022/04/03 10:10:35;;;;;;;4.40;3.50;;;6.40;49.00;;;;;;5071221;28;20187;-76
2022/04/03 10:13:03;;;;;;;4.80;3.30;;;6.30;48.10;;;;;;5071910;28;20667;-75
2022/04/03 10:15:29;;;;;;;3.97;3.17;;;6.30;47.40;;;;;;5062030;28;20233;-75
2022/04/03 10:17:56;;;;;;;3.67;2.83;;;6.20;47.70;;;;;;5056181;28;20185;-75
2022/04/03 10:20:28;;;;;;;4.87;2.90;;;6.20;47.50;;;;;;5074349;28;20661;-75
2022/04/03 10:23:05;;;;;;;4.73;3.43;;;6.10;47.20;;;;;;5068887;28;20212;-75
2022/04/03 10:25:37;;;;;;;3.83;2.77;;;6.20;47.90;;;;;;5069968;28;20193;-75
2022/04/03 10:28:05;;;;;;;3.70;2.53;;;6.30;47.80;;;;;;5069956;28;20179;-75
2022/04/03 10:30:45;;;;;;;3.23;2.90;;;6.40;46.50;;;;;;5067076;28;20184;-76
2022/04/03 10:33:21;;;;;;;3.77;2.80;;;6.30;45.90;;;;;;5063604;28;20715;-76
2022/04/03 10:35:48;;;;;;;3.77;2.60;;;6.40;46.20;;;;;;5065421;28;20186;-74
2022/04/03 10:38:14;;;;;;;3.60;2.40;;;6.50;47.10;;;;;;5066859;28;20183;-77
2022/04/03 10:40:56;;;;;;;4.37;2.43;;;6.60;46.50;;;;;;5060661;28;20181;-75
2022/04/03 10:43:29;;;;;;;2.60;2.40;;;6.80;45.70;;;;;;5065975;28;20201;-76
2022/04/03 10:45:55;;;;;;;3.57;2.57;;;7.00;45.60;;;;;;5061032;28;20185;-75
2022/04/03 10:48:21;;;;;;;2.87;2.47;;;7.40;44.40;;;;;;5065246;28;20192;-75
2022/04/03 10:50:56;;;;;;;4.03;2.53;;;7.50;44.20;;;;;;5065804;28;20276;-77
2022/04/03 10:53:27;;;;;;;3.43;2.50;;;7.60;43.70;;;;;;5069014;28;20187;-77
2022/04/03 10:55:58;;;;;;;2.87;2.57;;;7.60;43.90;;;;;;5063321;28;20189;-78
2022/04/03 10:58:36;;;;;;;3.83;2.77;;;7.50;44.20;;;;;;5070773;28;20188;-77
2022/04/03 11:01:03;;;;;;;2.83;2.30;;;7.50;44.40;;;;;;5081491;28;20181;-76
2022/04/03 11:03:32;;;;;;;3.03;2.40;;;7.40;43.00;;;;;;5065987;28;20217;-76
2022/04/03 11:06:17;;;;;;;3.07;2.20;;;7.30;42.20;;;;;;5064525;28;20174;-73
2022/04/03 11:09:12;;;;;;;2.53;2.10;;;7.20;40.40;;;;;;5062720;28;20181;-73
2022/04/03 11:11:50;;;;;;;2.00;1.80;;;7.30;41.80;;;;;;5062121;28;20189;-76
2022/04/03 11:14:55;;;;;;;2.17;1.90;;;7.40;40.10;;;;;;5060309;28;20215;-78
2022/04/03 11:17:47;;;;;;;1.97;1.77;;;7.50;39.80;;;;;;5066426;28;20181;-76
2022/04/03 11:20:40;;;;;;;2.63;2.00;;;7.60;41.20;;;;;;5060147;28;20173;-76
2022/04/03 11:23:10;;;;;;;2.30;2.00;;;7.80;40.40;;;;;;5060943;28;20246;-75
2022/04/03 11:25:37;;;;;;;2.30;2.10;;;8.10;39.50;;;;;;5061660;28;20169;-71
2022/04/03 11:28:03;;;;;;;2.10;1.70;;;8.30;39.80;;;;;;5069360;28;20185;-72
2022/04/03 11:30:29;;;;;;;2.43;1.90;;;8.40;38.60;;;;;;5059641;28;20186;-75
2022/04/03 11:32:58;;;;;;;3.60;2.00;;;8.50;39.40;;;;;;5068049;28;20673;-77
2022/04/03 11:35:35;;;;;;;3.43;2.10;;;8.60;39.20;;;;;;5063033;28;20224;-73
2022/04/03 11:38:01;;;;;;;1.97;1.70;;;8.60;38.70;;;;;;5060856;28;20185;-72
2022/04/03 11:40:28;;;;;;;3.53;2.00;;;8.80;38.70;;;;;;5057218;28;20182;-73
2022/04/03 11:43:09;;;;;;;2.77;2.20;;;9.00;39.10;;;;;;5063562;28;20211;-73
2022/04/03 11:45:35;;;;;;;2.23;1.87;;;9.20;37.30;;;;;;5070115;28;20196;-73
2022/04/03 11:48:21;;;;;;;3.07;2.17;;;9.10;37.40;;;;;;5066439;28;20185;-72
2022/04/03 11:50:49;;;;;;;2.63;2.00;;;9.30;37.30;;;;;;5061266;28;20177;-73
2022/04/03 11:53:16;;;;;;;3.67;2.07;;;9.40;36.80;;;;;;5061975;28;20501;-75
2022/04/03 11:55:41;;;;;;;3.00;2.43;;;9.50;36.70;;;;;;5061664;28;20185;-73
2022/04/03 11:58:07;;;;;;;2.50;2.30;;;9.70;36.40;;;;;;5060260;28;20190;-73
2022/04/03 12:00:34;;;;;;;2.47;2.07;;;9.70;36.00;;;;;;5066590;28;20185;-73
2022/04/03 12:03:00;;;;;;;2.80;2.00;;;9.80;35.30;;;;;;5060430;28;20271;-72
2022/04/03 12:05:26;;;;;;;2.90;2.40;;;10.20;35.70;;;;;;5065359;28;20201;-77
2022/04/03 12:07:52;;;;;;;2.63;2.10;;;10.60;35.00;;;;;;5062670;28;20180;-73
2022/04/03 12:10:27;;;;;;;3.07;1.90;;;11.10;34.90;;;;;;5062150;28;20188;-73
2022/04/03 12:12:57;;;;;;;3.80;1.90;;;11.50;34.00;;;;;;5062441;28;20186;-73
2022/04/03 12:15:26;;;;;;;2.73;2.13;;;12.00;33.50;;;;;;5062107;28;20284;-73
2022/04/03 12:17:56;;;;;;;2.27;2.07;;;12.60;33.60;;;;;;5057868;28;20181;-73
2022/04/03 12:20:22;;;;;;;2.17;1.97;;;;;;;;;;5069622;28;20656;-74
2022/04/03 12:22:52;;;;;;;3.60;2.10;;;13.10;32.60;;;;;;5069272;28;20609;-73
2022/04/03 12:25:19;;;;;;;2.30;2.10;;;13.30;32.60;;;;;;5062409;28;20277;-75
2022/04/03 12:27:45;;;;;;;2.53;2.10;;;13.60;33.10;;;;;;5066532;28;20181;-76
2022/04/03 12:30:12;;;;;;;2.20;2.00;;;13.70;32.20;;;;;;5063714;28;20242;-76
2022/04/03 12:32:40;;;;;;;2.60;1.90;;;13.70;32.00;;;;;;5066720;28;20181;-76
2022/04/03 12:35:08;;;;;;;1.97;1.80;;;18.40;33.20;;;;;;5060134;28;20202;-76
2022/04/03 12:37:40;;;;;;;2.27;2.07;;;14.40;31.90;;;;;;5065609;28;20227;-76
2022/04/03 12:40:11;;;;;;;2.23;2.00;;;14.80;31.10;;;;;;5061575;28;20182;-77
2022/04/03 12:42:44;;;;;;;3.03;1.90;;;15.10;30.60;;;;;;5059724;28;20705;-76
2022/04/03 12:45:16;;;;;;;2.83;2.17;;;15.50;30.20;;;;;;5060093;28;20868;-76
2022/04/03 12:47:43;;;;;;;2.87;2.00;;;15.70;30.00;;;;;;5065619;28;20268;-76
2022/04/03 12:50:16;;;;;;;2.03;1.80;;;16.10;30.00;;;;;;5067086;28;20188;-76
2022/04/03 12:52:45;;;;;;;2.53;2.10;;;;;;;;;;5061745;28;20252;-76
2022/04/03 12:55:23;;;;;;;2.30;1.90;;;17.10;28.90;;;;;;5060928;28;20256;-77
2022/04/03 13:00:43;;;;;;;3.23;2.30;;;17.90;28.30;;;;;;5061703;28;20276;-77